createdAt,value
2022-10-25T00:00:47.772Z,11.10
2022-10-25T00:03:16.045Z,11.10
2022-10-25T00:05:44.541Z,11.10
2022-10-25T00:08:13.122Z,11.10
2022-10-25T00:10:41.225Z,11.10
2022-10-25T00:13:10.886Z,11.10
2022-10-25T00:15:39.818Z,11.10
2022-10-25T00:18:07.893Z,11.10
2022-10-25T00:20:38.281Z,11.10
2022-10-25T00:23:06.672Z,11.10
2022-10-25T00:25:34.754Z,11.10
2022-10-25T00:28:03.013Z,11.10
2022-10-25T00:30:32.673Z,11.20
2022-10-25T00:33:01.318Z,11.10
2022-10-25T00:35:29.590Z,11.20
2022-10-25T00:37:57.726Z,11.20
2022-10-25T00:40:25.849Z,11.20
2022-10-25T00:42:54.089Z,11.20
2022-10-25T00:45:25.222Z,11.20
2022-10-25T00:47:58.889Z,11.20
2022-10-25T00:50:43.840Z,11.20
2022-10-25T00:53:16.416Z,11.20
2022-10-25T00:55:49.968Z,11.20
2022-10-25T00:58:21.908Z,11.20
2022-10-25T01:00:50.669Z,11.20
2022-10-25T01:03:23.978Z,11.20
2022-10-25T01:05:54.996Z,11.20
2022-10-25T01:08:23.901Z,11.20
2022-10-25T01:10:51.971Z,11.30
2022-10-25T01:13:20.342Z,11.30
2022-10-25T01:16:00.964Z,11.20
2022-10-25T01:18:37.064Z,11.30
2022-10-25T01:21:38.934Z,11.30
2022-10-25T01:24:22.499Z,11.30
2022-10-25T01:27:12.574Z,11.30
2022-10-25T01:30:15.679Z,11.30
2022-10-25T01:32:55.077Z,11.40
2022-10-25T01:35:29.337Z,11.40
2022-10-25T01:38:09.294Z,11.40
2022-10-25T01:40:45.455Z,11.40
2022-10-25T01:43:21.597Z,11.40
2022-10-25T01:45:59.409Z,11.40
2022-10-25T01:48:33.377Z,11.40
2022-10-25T01:51:10.006Z,11.40
2022-10-25T01:53:49.074Z,11.40
2022-10-25T01:56:23.285Z,11.50
2022-10-25T01:59:15.191Z,11.50
2022-10-25T02:01:56.273Z,11.50
2022-10-25T02:04:34.517Z,11.50
2022-10-25T02:07:08.006Z,11.60
2022-10-25T02:09:44.909Z,11.60
2022-10-25T02:12:19.413Z,11.60
2022-10-25T02:14:53.246Z,11.60
2022-10-25T02:17:24.177Z,11.70
2022-10-25T02:19:57.791Z,11.70
2022-10-25T02:22:30.568Z,11.80
2022-10-25T02:24:59.415Z,11.80
2022-10-25T02:27:29.002Z,11.80
2022-10-25T02:29:58.217Z,11.80
2022-10-25T02:32:26.617Z,11.80
2022-10-25T02:34:56.121Z,11.80
2022-10-25T02:37:24.403Z,11.80
2022-10-25T02:39:52.934Z,11.80
2022-10-25T02:42:21.009Z,11.80
2022-10-25T02:44:49.241Z,11.80
2022-10-25T02:47:17.391Z,11.80
2022-10-25T02:49:45.465Z,11.80
2022-10-25T02:52:15.005Z,11.80
2022-10-25T02:54:43.235Z,11.80
2022-10-25T02:57:11.435Z,11.80
2022-10-25T02:59:39.804Z,11.80
2022-10-25T03:02:08.031Z,11.80
2022-10-25T03:04:36.173Z,11.80
2022-10-25T03:07:04.363Z,11.80
2022-10-25T03:09:33.932Z,11.90
2022-10-25T03:12:01.999Z,11.80
2022-10-25T03:14:30.206Z,11.80
2022-10-25T03:16:58.491Z,11.80
2022-10-25T03:19:26.573Z,11.80
2022-10-25T03:21:54.787Z,11.80
2022-10-25T03:24:22.967Z,11.80
2022-10-25T03:26:52.536Z,11.80
2022-10-25T03:29:21.145Z,11.70
2022-10-25T03:31:49.330Z,11.80
2022-10-25T03:34:17.418Z,11.80
2022-10-25T03:36:45.658Z,11.80
2022-10-25T03:39:13.922Z,11.80
2022-10-25T03:41:42.040Z,11.80
2022-10-25T03:44:11.662Z,11.80
2022-10-25T03:46:39.866Z,11.80
2022-10-25T03:49:07.988Z,11.80
2022-10-25T03:51:36.171Z,11.80
2022-10-25T03:54:04.646Z,11.80
2022-10-25T03:56:32.877Z,11.80
2022-10-25T03:59:01.153Z,11.80
2022-10-25T04:01:30.882Z,11.80
2022-10-25T04:03:59.179Z,11.80
2022-10-25T04:06:27.485Z,11.80
2022-10-25T04:08:55.604Z,11.80
2022-10-25T04:11:23.782Z,11.80
2022-10-25T04:13:51.994Z,11.80
2022-10-25T04:16:20.121Z,11.80
2022-10-25T04:18:51.489Z,11.80
2022-10-25T04:21:19.738Z,11.80
2022-10-25T04:23:47.862Z,11.70
2022-10-25T04:26:18.381Z,11.70
2022-10-25T04:28:50.060Z,11.70
2022-10-25T04:31:18.394Z,11.70
2022-10-25T04:33:51.029Z,11.70
2022-10-25T04:36:19.437Z,11.70
2022-10-25T04:38:49.237Z,11.70
2022-10-25T04:41:17.772Z,11.70
2022-10-25T04:43:46.161Z,11.70
2022-10-25T04:46:14.597Z,11.60
2022-10-25T04:48:43.596Z,11.60
2022-10-25T04:51:14.117Z,11.60
2022-10-25T04:53:42.354Z,11.60
2022-10-25T04:56:12.956Z,11.60
2022-10-25T04:58:41.882Z,11.70
2022-10-25T05:01:12.091Z,11.70
2022-10-25T05:03:40.669Z,11.70
2022-10-25T05:06:10.646Z,11.60
2022-10-25T05:08:41.282Z,11.60
2022-10-25T05:11:10.273Z,11.70
2022-10-25T05:13:40.272Z,11.70
2022-10-25T05:16:08.729Z,11.70
2022-10-25T05:18:36.797Z,11.60
2022-10-25T05:21:07.282Z,11.60
2022-10-25T05:23:36.007Z,11.60
2022-10-25T05:26:08.011Z,11.50
2022-10-25T05:28:37.420Z,11.50
2022-10-25T05:31:06.143Z,11.50
2022-10-25T05:33:35.213Z,11.50
2022-10-25T05:36:04.588Z,11.50
2022-10-25T05:38:36.976Z,11.50
2022-10-25T05:41:08.672Z,11.50
2022-10-25T05:43:36.800Z,11.50
2022-10-25T05:46:07.522Z,11.50
2022-10-25T05:48:37.462Z,11.50
2022-10-25T05:51:28.968Z,11.50
2022-10-25T05:54:03.132Z,11.50
2022-10-25T05:56:33.868Z,11.50
2022-10-25T05:59:03.709Z,11.50
2022-10-25T06:01:31.943Z,11.60
2022-10-25T06:04:00.159Z,11.60
2022-10-25T06:06:28.442Z,11.60
2022-10-25T06:08:58.398Z,11.60
2022-10-25T06:11:27.914Z,11.70
2022-10-25T06:13:57.470Z,11.80
2022-10-25T06:16:26.185Z,11.80
2022-10-25T06:18:55.102Z,11.80
2022-10-25T06:21:25.749Z,11.90
2022-10-25T06:23:54.291Z,11.90
2022-10-25T06:26:24.125Z,11.90
2022-10-25T06:28:54.814Z,12.00
2022-10-25T06:31:24.695Z,12.00
2022-10-25T06:33:53.238Z,12.00
2022-10-25T06:36:23.526Z,12.00
2022-10-25T06:38:52.434Z,12.00
2022-10-25T06:41:22.525Z,12.00
2022-10-25T06:43:51.475Z,12.00
2022-10-25T06:46:24.389Z,12.00
2022-10-25T06:48:53.867Z,12.00
2022-10-25T06:51:22.877Z,12.00
2022-10-25T06:53:55.190Z,12.00
2022-10-25T06:56:23.915Z,12.10
2022-10-25T06:58:52.280Z,12.00
2022-10-25T07:01:23.734Z,12.00
2022-10-25T07:03:53.835Z,12.00
2022-10-25T07:06:24.864Z,12.10
2022-10-25T07:08:55.505Z,12.10
2022-10-25T07:11:24.893Z,12.10
2022-10-25T07:13:53.289Z,12.10
2022-10-25T07:16:23.911Z,12.20
2022-10-25T07:18:52.256Z,12.20
2022-10-25T07:21:22.001Z,12.20
2022-10-25T07:23:51.912Z,12.20
2022-10-25T07:26:22.575Z,12.30
2022-10-25T07:28:52.422Z,12.30
2022-10-25T07:31:22.245Z,12.30
2022-10-25T07:33:53.713Z,12.30
2022-10-25T07:36:22.439Z,12.30
2022-10-25T07:38:50.520Z,12.30
2022-10-25T07:41:18.830Z,12.30
2022-10-25T07:43:47.013Z,12.30
2022-10-25T07:46:15.205Z,12.30
2022-10-25T07:48:43.457Z,12.30
2022-10-25T07:51:14.685Z,12.30
2022-10-25T07:53:43.023Z,12.30
2022-10-25T07:56:17.498Z,12.30
2022-10-25T07:58:48.714Z,12.30
2022-10-25T08:01:21.242Z,12.30
2022-10-25T08:03:49.422Z,12.40
2022-10-25T08:06:19.310Z,12.40
2022-10-25T08:08:47.994Z,12.40
2022-10-25T08:11:16.169Z,12.40
2022-10-25T08:13:44.366Z,12.40
2022-10-25T08:16:12.631Z,12.40
2022-10-25T08:18:40.717Z,12.50
2022-10-25T08:21:08.942Z,12.50
2022-10-25T08:23:38.513Z,12.50
2022-10-25T08:26:06.862Z,12.60
2022-10-25T08:28:35.358Z,12.60
2022-10-25T08:31:04.648Z,12.70
2022-10-25T08:33:34.081Z,12.70
2022-10-25T08:36:02.413Z,12.90
2022-10-25T08:38:31.226Z,13.00
2022-10-25T08:41:07.216Z,13.10
2022-10-25T08:44:09.441Z,13.20
2022-10-25T08:46:42.021Z,13.30
2022-10-25T08:49:20.767Z,13.40
2022-10-25T08:51:50.960Z,13.40
2022-10-25T08:54:27.971Z,13.60
2022-10-25T08:57:20.667Z,13.80
2022-10-25T08:59:51.636Z,13.80
2022-10-25T09:02:26.404Z,13.80
2022-10-25T09:04:55.721Z,13.70
2022-10-25T09:07:49.890Z,13.70
2022-10-25T09:10:30.753Z,13.60
2022-10-25T09:13:10.888Z,13.60
2022-10-25T09:15:53.901Z,13.60
2022-10-25T09:18:29.833Z,13.70
2022-10-25T09:20:59.228Z,13.80
2022-10-25T09:23:30.850Z,13.90
2022-10-25T09:26:05.182Z,13.90
2022-10-25T09:28:51.703Z,13.90
2022-10-25T09:31:24.392Z,13.70
2022-10-25T09:34:01.520Z,13.60
2022-10-25T09:36:39.325Z,13.50
2022-10-25T09:39:16.149Z,13.50
2022-10-25T09:41:47.369Z,13.50
2022-10-25T09:44:27.170Z,13.40
2022-10-25T09:46:58.898Z,13.40
2022-10-25T09:49:35.092Z,13.40
2022-10-25T09:52:11.426Z,13.30
2022-10-25T09:54:45.787Z,13.20
2022-10-25T09:57:14.241Z,13.20
2022-10-25T09:59:44.274Z,13.10
2022-10-25T10:02:19.281Z,13.20
2022-10-25T10:04:47.501Z,13.50
2022-10-25T10:07:21.294Z,13.60
2022-10-25T10:09:51.222Z,13.60
2022-10-25T10:12:27.070Z,13.70
2022-10-25T10:15:01.882Z,13.70
2022-10-25T10:17:32.034Z,13.50
2022-10-25T10:20:10.392Z,13.40
2022-10-25T10:22:45.489Z,13.30
2022-10-25T10:25:18.875Z,13.20
2022-10-25T10:27:50.486Z,13.20
2022-10-25T10:30:29.180Z,13.30
2022-10-25T10:33:00.383Z,13.40
2022-10-25T10:35:33.750Z,13.30
2022-10-25T10:38:24.516Z,13.30
2022-10-25T10:40:54.677Z,13.30
2022-10-25T10:43:31.547Z,13.30
2022-10-25T10:46:05.480Z,13.20
2022-10-25T10:48:41.814Z,13.10
2022-10-25T10:51:25.556Z,13.10
2022-10-25T10:54:14.794Z,13.20
2022-10-25T10:56:42.870Z,13.30
2022-10-25T10:59:30.837Z,13.30
2022-10-25T11:02:13.137Z,13.30
2022-10-25T11:04:51.880Z,13.30
2022-10-25T11:07:31.296Z,13.30
2022-10-25T11:10:33.370Z,13.30
2022-10-25T11:13:16.556Z,13.20
2022-10-25T11:16:12.949Z,13.10
2022-10-25T11:18:51.209Z,13.10
2022-10-25T11:21:39.367Z,13.10
2022-10-25T11:24:15.865Z,13.10
2022-10-25T11:26:54.828Z,13.20
2022-10-25T11:29:42.593Z,13.30
2022-10-25T11:35:36.631Z,13.40
2022-10-25T11:38:12.987Z,13.40
2022-10-25T11:40:42.369Z,13.50
2022-10-25T11:43:30.854Z,13.40
2022-10-25T11:46:04.046Z,13.40
2022-10-25T11:48:48.212Z,13.40
2022-10-25T11:51:28.698Z,13.40
2022-10-25T11:54:20.627Z,13.40
2022-10-25T11:56:56.765Z,13.30
2022-10-25T11:59:34.382Z,13.20
2022-10-25T12:02:21.002Z,13.20
2022-10-25T12:04:58.022Z,13.20
2022-10-25T12:07:34.981Z,13.20
2022-10-25T12:10:16.293Z,13.10
2022-10-25T12:12:49.663Z,13.10
2022-10-25T12:15:24.448Z,13.10
2022-10-25T12:17:54.076Z,13.10
2022-10-25T12:20:26.510Z,13.00
2022-10-25T12:22:59.789Z,13.00
2022-10-25T12:25:31.308Z,13.00
2022-10-25T12:28:07.643Z,13.00
2022-10-25T12:30:36.927Z,13.00
2022-10-25T12:33:13.685Z,13.00
2022-10-25T12:35:48.610Z,12.90
2022-10-25T12:38:25.527Z,12.90
2022-10-25T12:41:06.220Z,12.90
2022-10-25T12:43:39.326Z,12.80
2022-10-25T12:46:45.857Z,12.70
2022-10-25T12:49:37.236Z,12.70
2022-10-25T12:52:19.805Z,12.70
2022-10-25T12:55:03.773Z,12.60
2022-10-25T12:57:37.512Z,12.60
2022-10-25T13:00:12.204Z,12.60
2022-10-25T13:03:22.330Z,12.60
2022-10-25T13:06:09.454Z,12.60
2022-10-25T13:08:41.329Z,12.50
2022-10-25T13:11:11.780Z,12.60
2022-10-25T13:13:47.386Z,12.60
2022-10-25T13:16:25.490Z,12.60
2022-10-25T13:19:57.733Z,12.70
2022-10-25T13:22:35.763Z,12.70
2022-10-25T13:25:10.839Z,12.70
2022-10-25T13:27:41.977Z,12.80
2022-10-25T13:30:29.097Z,12.80
2022-10-25T13:33:29.669Z,12.90
2022-10-25T13:36:02.572Z,12.90
2022-10-25T13:38:38.070Z,12.90
2022-10-25T13:41:18.399Z,12.90
2022-10-25T13:44:08.515Z,12.90
2022-10-25T13:46:40.092Z,12.90
2022-10-25T13:49:29.697Z,12.90
2022-10-25T13:51:59.907Z,12.90
2022-10-25T13:54:38.036Z,12.80
2022-10-25T13:57:27.250Z,12.80
2022-10-25T14:00:03.775Z,12.80
2022-10-25T14:02:33.539Z,12.70
2022-10-25T14:05:01.689Z,12.70
2022-10-25T14:07:50.930Z,12.70
2022-10-25T14:10:26.761Z,12.70
2022-10-25T14:13:01.493Z,12.70
2022-10-25T14:15:42.640Z,12.60
2022-10-25T14:18:18.702Z,12.60
2022-10-25T14:20:49.044Z,12.60
2022-10-25T14:23:21.341Z,12.60
2022-10-25T14:25:56.109Z,12.60
2022-10-25T14:28:26.658Z,12.60
2022-10-25T14:30:57.844Z,12.60
2022-10-25T14:33:29.010Z,12.60
2022-10-25T14:35:59.343Z,12.60
2022-10-25T14:38:28.867Z,12.60
2022-10-25T14:40:58.914Z,12.60
2022-10-25T14:43:32.245Z,12.50
2022-10-25T14:46:04.961Z,12.50
2022-10-25T14:48:34.166Z,12.50
2022-10-25T14:51:06.640Z,12.50
2022-10-25T14:53:35.402Z,12.50
2022-10-25T14:56:06.278Z,12.50
2022-10-25T14:58:41.565Z,12.50
2022-10-25T15:01:12.853Z,12.50
2022-10-25T15:03:44.473Z,12.50
2022-10-25T15:06:14.507Z,12.50
2022-10-25T15:08:49.165Z,12.40
2022-10-25T15:11:20.865Z,12.50
2022-10-25T15:13:51.095Z,12.40
2022-10-25T15:16:35.430Z,12.40
2022-10-25T15:19:18.332Z,12.40
2022-10-25T15:21:49.062Z,12.40
2022-10-25T15:24:20.653Z,12.40
2022-10-25T15:26:57.805Z,12.40
2022-10-25T15:32:24.391Z,12.30
2022-10-25T15:34:54.189Z,12.30
2022-10-25T15:37:24.153Z,12.30
2022-10-25T15:39:54.091Z,12.30
2022-10-25T15:42:23.614Z,12.30
2022-10-25T15:44:51.727Z,12.30
2022-10-25T15:47:30.157Z,12.20
2022-10-25T15:49:58.961Z,12.30
2022-10-25T15:52:27.392Z,12.30
2022-10-25T15:54:55.637Z,12.30
2022-10-25T15:57:24.091Z,12.30
2022-10-25T15:59:52.170Z,12.30
2022-10-25T16:02:23.142Z,12.30
2022-10-25T16:04:52.778Z,12.20
2022-10-25T16:07:20.826Z,12.20
2022-10-25T16:09:49.111Z,12.20
2022-10-25T16:12:21.611Z,12.20
2022-10-25T16:14:52.138Z,12.20
2022-10-25T16:17:20.326Z,12.20
2022-10-25T16:19:48.437Z,12.30
2022-10-25T16:22:18.042Z,12.20
2022-10-25T16:24:46.234Z,12.20
2022-10-25T16:27:14.741Z,12.20
2022-10-25T16:29:43.025Z,12.20
2022-10-25T16:32:11.187Z,12.30
2022-10-25T16:34:42.466Z,12.30
2022-10-25T16:37:12.021Z,12.30
2022-10-25T16:39:41.897Z,12.30
2022-10-25T16:42:28.827Z,12.30
2022-10-25T16:44:57.032Z,12.30
2022-10-25T16:47:25.378Z,12.30
2022-10-25T16:49:53.588Z,12.30
2022-10-25T16:52:22.469Z,12.30
2022-10-25T16:54:51.981Z,12.20
2022-10-25T16:57:20.138Z,12.20
2022-10-25T16:59:48.368Z,12.30
2022-10-25T17:02:19.097Z,12.30
2022-10-25T17:04:48.535Z,12.20
2022-10-25T17:07:17.083Z,12.20
2022-10-25T17:09:45.254Z,12.30
2022-10-25T17:12:14.865Z,12.20
2022-10-25T17:14:43.113Z,12.30
2022-10-25T17:17:11.299Z,12.30
2022-10-25T17:19:39.514Z,12.30
2022-10-25T17:22:07.831Z,12.20
2022-10-25T17:24:35.992Z,12.20
2022-10-25T17:29:34.953Z,12.20
2022-10-25T17:32:03.078Z,12.30
2022-10-25T17:34:32.229Z,12.30
2022-10-25T17:37:02.278Z,12.30
2022-10-25T17:39:30.725Z,12.30
2022-10-25T17:41:58.966Z,12.30
2022-10-25T17:44:27.206Z,12.30
2022-10-25T17:46:58.475Z,12.30
2022-10-25T17:49:29.371Z,12.30
2022-10-25T17:51:57.442Z,12.30
2022-10-25T17:54:25.542Z,12.30
2022-10-25T17:56:58.666Z,12.30
2022-10-25T17:59:28.423Z,12.30
2022-10-25T18:01:58.089Z,12.30
2022-10-25T18:04:26.559Z,12.30
2022-10-25T18:06:54.751Z,12.30
2022-10-25T18:09:22.874Z,12.30
2022-10-25T18:11:51.122Z,12.40
2022-10-25T18:14:19.373Z,12.40
2022-10-25T18:16:47.563Z,12.30
2022-10-25T18:19:17.346Z,12.40
2022-10-25T18:21:45.630Z,12.40
2022-10-25T18:24:14.673Z,12.40
2022-10-25T18:26:42.915Z,12.40
2022-10-25T18:29:11.164Z,12.40
2022-10-25T18:31:39.893Z,12.40
2022-10-25T18:34:08.139Z,12.40
2022-10-25T18:36:37.781Z,12.40
2022-10-25T18:39:06.083Z,12.40
2022-10-25T18:41:35.703Z,12.40
2022-10-25T18:44:04.042Z,12.40
2022-10-25T18:46:32.831Z,12.40
2022-10-25T18:49:01.248Z,12.40
2022-10-25T18:51:29.912Z,12.40
2022-10-25T18:54:01.248Z,12.30
2022-10-25T18:56:30.771Z,12.30
2022-10-25T18:59:00.017Z,12.40
2022-10-25T19:01:32.873Z,12.30
2022-10-25T19:04:02.233Z,12.40
2022-10-25T19:06:30.998Z,12.40
2022-10-25T19:09:00.921Z,12.40
2022-10-25T19:11:29.074Z,12.30
2022-10-25T19:13:57.580Z,12.30
2022-10-25T19:16:26.093Z,12.20
2022-10-25T19:18:54.250Z,12.20
2022-10-25T19:21:22.331Z,12.20
2022-10-25T19:23:54.209Z,12.10
2022-10-25T19:26:24.062Z,12.10
2022-10-25T19:28:57.263Z,12.10
2022-10-25T19:31:25.679Z,12.00
2022-10-25T19:33:56.297Z,12.00
2022-10-25T19:36:24.566Z,11.90
2022-10-25T19:38:52.806Z,11.90
2022-10-25T19:41:25.738Z,11.90
2022-10-25T19:43:56.416Z,11.80
2022-10-25T19:46:24.677Z,11.80
2022-10-25T19:48:52.938Z,11.70
2022-10-25T19:51:21.846Z,11.70
2022-10-25T19:53:50.257Z,11.70
2022-10-25T19:56:20.434Z,11.70
2022-10-25T19:58:51.266Z,11.70
2022-10-25T20:01:23.352Z,11.70
2022-10-25T20:03:54.575Z,11.70
2022-10-25T20:06:25.133Z,11.70
2022-10-25T20:08:54.232Z,11.60
2022-10-25T20:11:23.994Z,11.60
2022-10-25T20:13:56.338Z,11.60
2022-10-25T20:16:24.693Z,11.60
2022-10-25T20:18:53.173Z,11.60
2022-10-25T20:21:23.139Z,11.60
2022-10-25T20:23:55.797Z,11.60
2022-10-25T20:26:25.829Z,11.60
2022-10-25T20:28:56.535Z,11.60
2022-10-25T20:31:26.192Z,11.50
2022-10-25T20:33:55.863Z,11.50
2022-10-25T20:36:24.664Z,11.50
2022-10-25T20:38:53.232Z,11.50
2022-10-25T20:41:25.156Z,11.50
2022-10-25T20:43:56.716Z,11.50
2022-10-25T20:46:26.877Z,11.50
2022-10-25T20:48:55.183Z,11.50
2022-10-25T20:51:23.682Z,11.50
2022-10-25T20:53:52.030Z,11.50
2022-10-25T20:56:22.569Z,11.50
2022-10-25T20:58:51.109Z,11.50
2022-10-25T21:01:21.200Z,11.50
2022-10-25T21:03:49.364Z,11.50
2022-10-25T21:06:17.561Z,11.40
2022-10-25T21:08:45.743Z,11.40
2022-10-25T21:11:14.694Z,11.40
2022-10-25T21:13:43.082Z,11.40
2022-10-25T21:16:12.753Z,11.40
2022-10-25T21:18:43.065Z,11.40
2022-10-25T21:21:18.098Z,11.30
2022-10-25T21:23:46.374Z,11.30
2022-10-25T21:26:14.725Z,11.40
2022-10-25T21:28:43.009Z,11.40
2022-10-25T21:31:13.838Z,11.30
2022-10-25T21:33:49.876Z,11.30
2022-10-25T21:36:20.417Z,11.30
2022-10-25T21:38:48.786Z,11.30
2022-10-25T21:41:19.828Z,11.30
2022-10-25T21:43:49.901Z,11.30
2022-10-25T21:46:19.495Z,11.30
2022-10-25T21:48:50.837Z,11.30
2022-10-25T21:51:19.774Z,11.30
2022-10-25T21:53:48.372Z,11.30
2022-10-25T21:56:18.142Z,11.30
2022-10-25T21:58:47.924Z,11.30
2022-10-25T22:01:17.814Z,11.30
2022-10-25T22:03:46.274Z,11.30
2022-10-25T22:06:17.364Z,11.20
2022-10-25T22:08:45.937Z,11.20
2022-10-25T22:11:16.395Z,11.10
2022-10-25T22:13:45.082Z,11.20
2022-10-25T22:16:15.274Z,11.10
2022-10-25T22:18:44.894Z,11.10
2022-10-25T22:21:15.253Z,11.10
2022-10-25T22:23:43.359Z,11.10
2022-10-25T22:26:13.328Z,11.10
2022-10-25T22:28:41.779Z,11.10
2022-10-25T22:31:11.695Z,11.10
2022-10-25T22:33:40.244Z,11.10
2022-10-25T22:36:10.269Z,11.10
2022-10-25T22:38:40.370Z,11.10
2022-10-25T22:41:12.314Z,11.10
2022-10-25T22:43:41.253Z,11.10
2022-10-25T22:46:12.591Z,11.10
2022-10-25T22:48:42.466Z,11.10
2022-10-25T22:51:12.004Z,11.10
2022-10-25T22:53:42.097Z,11.10
2022-10-25T22:56:13.301Z,11.10
2022-10-25T22:58:42.830Z,11.10
2022-10-25T23:01:12.587Z,11.10
2022-10-25T23:03:41.981Z,11.10
2022-10-25T23:06:13.646Z,11.10
2022-10-25T23:08:43.480Z,11.10
2022-10-25T23:11:15.057Z,11.10
2022-10-25T23:13:43.738Z,11.10
2022-10-25T23:16:13.753Z,11.10
2022-10-25T23:18:42.098Z,11.10
2022-10-25T23:21:17.265Z,11.00
2022-10-25T23:23:47.512Z,11.10
2022-10-25T23:26:19.788Z,11.10
2022-10-25T23:28:48.330Z,11.10
2022-10-25T23:31:17.070Z,11.10
2022-10-25T23:33:46.111Z,11.10
2022-10-25T23:36:16.478Z,11.00
2022-10-25T23:38:46.500Z,11.00
2022-10-25T23:41:15.294Z,11.00
2022-10-25T23:43:43.538Z,11.00
2022-10-25T23:46:12.277Z,11.00
2022-10-25T23:48:40.696Z,11.00
2022-10-25T23:51:10.599Z,11.00
2022-10-25T23:53:39.294Z,11.00
2022-10-25T23:56:11.330Z,11.00
2022-10-25T23:58:39.664Z,11.00
